Nearby METAR Reports

 

K9MN - St Mary Hospital, Minnesota, USA
Distance from station: SW 3mi, 4km
Updated: 01/16/2019 9:36pm
Overcast
Overcast
 Wind from ESE
Wind: ESE 5 mph , 7 km/h
Temperature: 21°F , -6°C
Wind Chill: 14°F , -10°C
Dew Point: 12°F , -11°C
Humidity: 68%
Barometer: 30.18 inHg , 1022 hPa
Clouds: Overcast
Visibility: 10 miles , 16 km
Cloud details: Overcast 2200 ft
2019/01/17 03:36 K9MN 170336Z AUTO 11004KT 10SM OVC022 M06/M11 A3018 RMK AO1 T10651114
KRST - Rochester, Minnesota, USA
Distance from station: SSW 10mi, 16km
Updated: 01/16/2019 8:54pm
Overcast
Overcast
 Wind from E
Wind: E 3 mph , 6 km/h
Temperature: 19°F , -7°C
Dew Point: 14°F , -10°C
Humidity: 79%
Barometer: 30.17 inHg , 1021.7 hPa
Clouds: Overcast
Visibility: 10 miles , 16 km
Cloud details: Overcast 2100 ft
2019/01/17 02:54 KRST 170254Z 10003KT 10SM OVC021 M07/M10 A3017 RMK AO2 SLP243 T10671100 58011
 
KTOB - Dodge Center, Minnesota, USA
Distance from station: W 19mi, 30km
Updated: 01/16/2019 9:35pm
Mostly cloudy
Mostly cloudy
 Wind from E
Wind: E 6 mph , 9 km/h
Temperature: 18°F , -8°C
Wind Chill: 10°F , -12°C
Dew Point: 12°F , -11°C
Humidity: 79%
Barometer: 30.16 inHg , 1021.3 hPa
Clouds: Mostly cloudy
Visibility: 10 miles , 16 km
Cloud details: Partly cloudy 2100 ft
Mostly cloudy 10000 ft
2019/01/17 03:35 KTOB 170335Z AUTO 09005KT 10SM SCT021 BKN100 M08/M11 A3016 RMK AO2
KFKA - Preston, Minnesota, USA
Distance from station: SSE 28mi, 45km
Updated: 01/16/2019 9:36pm
Mostly cloudy
Mostly cloudy
 Wind from calm
Wind: Calm
Temperature: 21°F , -6°C
Dew Point: 12°F , -11°C
Humidity: 68%
Barometer: 30.18 inHg , 1022 hPa
Clouds: Mostly cloudy
Visibility: 10 miles , 16 km
Cloud details: Mostly cloudy 2500 ft
2019/01/17 03:36 KFKA 170336Z AUTO 00000KT 10SM BKN025 M06/M11 A3018 RMK AO2 T10601110
 
KAUM - Austin Muni, Minnesota, USA
Distance from station: SW 35mi, 57km
Updated: 01/16/2019 9:35pm
Overcast
Overcast
 Wind from ESE
Wind: ESE 7 mph , 11 km/h
Temperature: 25°F , -4°C
Wind Chill: 17°F , -8°C
Dew Point: 12°F , -11°C
Humidity: 59%
Barometer: 30.16 inHg , 1021.3 hPa
Clouds: Overcast
Visibility: 10 miles , 16 km
Cloud details: Overcast 2200 ft
2019/01/17 03:35 KAUM 170335Z AUTO 11006KT 10SM OVC022 M04/M11 A3016 RMK AO2
KONA - Winona Muni, Minnesota, USA
Distance from station: E 37mi, 59km
Updated: 01/16/2019 9:35pm
Overcast
Overcast
 Wind from calm
Wind: Calm
Temperature: 19°F , -7°C
Dew Point: 16°F , -9°C
Humidity: 86%
Barometer: 30.24 inHg , 1024 hPa
Clouds: Overcast
Visibility: 10 miles , 16 km
Cloud details: Overcast 3100 ft
2019/01/17 03:35 KONA 170335Z AUTO 00000KT 10SM OVC031 M07/M09 A3024 RMK AO2
 
KRGK - Red Wing, Minnesota, USA
Distance from station: N 38mi, 61km
Updated: 01/16/2019 9:36pm
Overcast
Overcast
 Wind from ENE
Wind: ENE 3 mph , 6 km/h
Temperature: 18°F , -8°C
Dew Point: 5°F , -15°C
Humidity: 58%
Barometer: 30.21 inHg , 1023 hPa
Clouds: Overcast
Visibility: 10 miles , 16 km
Cloud details: Overcast 11000 ft
2019/01/17 03:36 KRGK 170336Z AUTO 07003KT 10SM OVC110 M08/M15 A3021 RMK AO2
KOWA - Owatonna, Minnesota, USA
Distance from station: W 41mi, 65km
Updated: 01/16/2019 9:35pm
Overcast
Overcast
 Wind from E
Wind: E 3 mph , 6 km/h
Temperature: 19°F , -7°C
Dew Point: 14°F , -10°C
Humidity: 79%
Barometer: 30.17 inHg , 1021.7 hPa
Clouds: Overcast
Visibility: 10 miles , 16 km
Cloud details: Partly cloudy 2300 ft
Partly cloudy 7500 ft
Overcast 9000 ft
2019/01/17 03:35 KOWA 170335Z AUTO 09003KT 10SM SCT023 SCT075 OVC090 M07/M10 A3017 RMK AO2
 
KSYN - Stanton, Minnesota, USA
Distance from station: NW 42mi, 68km
Updated: 01/16/2019 9:35pm
Mostly cloudy
Mostly cloudy
 Wind from calm
Wind: Calm
Temperature: 19°F , -7°C
Dew Point: 12°F , -11°C
Humidity: 73%
Barometer: 30.18 inHg , 1022 hPa
Clouds: Mostly cloudy
Visibility: 10 miles , 16 km
Cloud details: Partly cloudy 8000 ft
Mostly cloudy 9500 ft
Mostly cloudy 11000 ft
2019/01/17 03:35 KSYN 170335Z AUTO 00000KT 10SM SCT080 BKN095 BKN110 M07/M11 A3018 RMK AO2 T10751112
KFBL - Faribault Muni, Minnesota, USA
Distance from station: WNW 48mi, 77km
Updated: 09/20/2018 6:41pm
NOT Current

 Wind from SSE
Wind: SSE 18 mph , 30 km/h, Gust: 45 mph , 72 km/h
Visibility: 4 miles , 6 km
2018/09/20 23:41 KFBL 202341Z AUTO 15016G39KT 122V182 4SM +VCTSRA SCT010 BKN070 21/21 A2951 RMK AO2 P0008 LTG DSNT ALQDS